Latest Weather Observations for Norah Head

IDN60901

Issued at 10:01 pm EDT Monday 4 March 2024 (issued every 10 minutes, with the page automatically refreshed every 10 minutes)

About weather observations | Map of Sydney area stations | Latest observations for Sydney area | Other Formats
Station Details ID: 061366 Name: NORAH HEAD AWS Lat: -33.28 Lon: 151.58 Height: 18.8 m
Data from the previous 72 hours. | See also: Recent months at Norah Head
Date/Time
EDT
Temp
°C
App
Temp
°C
Dew
Point
°C
Rel
Hum
%
Delta-T
°C
Wind Press
QNH
hPa
Press
MSL
hPa
Rain since
9am
mm
Dir  Spd
km/h
Gust
km/h
Spd
kts
Gust
kts
04/10:00pm 20.6 16.6 14.0 66 3.8 SSE 28 33 15 18 1023.9 1023.8 0.0
04/09:30pm 20.8 17.1 15.1 70 3.4 SSE 28 35 15 19 1023.8 1023.7 0.0
04/09:00pm 20.8 16.6 14.7 68 3.6 SSE 30 35 16 19 1023.4 1023.3 0.0
04/08:30pm 20.8 16.2 14.7 68 3.6 SSE 32 35 17 19 1023.0 1022.9 0.0
04/08:00pm 20.9 16.5 15.7 72 3.1 SSE 33 39 18 21 1022.6 1022.5 0.0
04/07:30pm 20.9 17.2 15.9 73 3.0 SSE 30 35 16 19 1022.4 1022.3 0.0
04/07:00pm 20.9 17.5 15.9 73 3.0 SSE 28 33 15 18 1022.3 1022.2 0.0
04/06:30pm 21.4 17.9 16.4 73 3.0 SSE 30 35 16 19 1022.1 1022.0 0.0
04/06:00pm 22.0 18.4 17.2 74 2.9 SSE 32 39 17 21 1021.6 1021.5 0.0
04/05:30pm 22.3 18.0 17.7 75 2.9 SSE 37 43 20 23 1021.3 1021.2 0.0
04/05:00pm 22.4 17.8 17.1 72 3.2 S 37 43 20 23 1021.1 1021.0 0.0
04/04:30pm 22.5 18.6 17.0 71 3.4 SSE 33 41 18 22 1021.4 1021.3 0.0
04/04:00pm 22.3 18.1 17.2 73 3.1 SSE 35 43 19 23 1021.8 1021.7 0.0
04/03:30pm 22.1 17.1 17.0 73 3.1 SSE 39 46 21 25 1021.7 1021.6 0.0
04/03:00pm 22.3 17.4 17.2 73 3.1 S 39 46 21 25 1021.8 1021.7 0.0
04/02:30pm 23.1 19.0 17.3 70 3.6 S 35 43 19 23 1021.9 1021.8 0.0
04/02:00pm 22.6 18.3 16.9 70 3.5 S 35 43 19 23 1021.9 1021.8 0.0
04/01:30pm 22.6 18.5 16.4 68 3.8 S 33 41 18 22 1021.9 1021.8 0.0
04/01:00pm 22.2 17.7 16.5 70 3.5 S 35 43 19 23 1022.0 1021.9 0.0
04/12:30pm 22.7 18.3 16.7 69 3.7 S 35 43 19 23 1021.9 1021.8 0.0
04/12:00pm 22.2 18.4 16.7 71 3.3 S 32 39 17 21 1022.2 1022.1 0.0
04/11:30am 22.2 17.7 15.5 66 4.0 S 33 39 18 21 1022.3 1022.2 0.0
04/11:00am 23.2 18.4 16.5 66 4.1 S 37 44 20 24 1022.1 1022.0 0.0
04/10:30am 22.8 16.9 16.6 68 3.8 S 43 50 23 27 1021.8 1021.7 0.0
04/10:00am 22.4 16.0 16.0 67 3.9 S 44 54 24 29 1021.4 1021.3 0.0
04/09:30am 21.6 15.2 15.9 70 3.4 S 44 54 24 29 1021.2 1021.1 0.0
04/09:00am 21.2 15.1 16.2 73 3.0 S 43 50 23 27 1021.0 1020.9 -
04/08:30am 21.3 15.9 16.9 76 2.7 S 41 50 22 27 1020.5 1020.4 -
04/08:00am 21.0 15.3 16.2 74 2.9 S 41 50 22 27 1019.9 1019.8 -
04/07:30am 21.1 15.0 16.3 74 2.9 S 43 52 23 28 1019.6 1019.5 -
04/07:00am 21.1 14.8 16.1 73 3.0 S 44 54 24 29 1019.1 1019.0 -
04/06:30am 21.2 15.4 17.0 77 2.6 SSE 43 52 23 28 1018.5 1018.4 -
04/06:00am 21.5 15.6 17.1 76 2.7 SSE 44 52 24 28 1018.1 1018.0 -
04/05:30am 21.4 15.0 16.8 75 2.8 SSE 46 54 25 29 1017.7 1017.6 -
04/05:00am 21.9 15.8 17.5 76 2.7 SSE 46 54 25 29 1017.0 1016.9 -
04/04:30am 22.1 16.7 17.9 77 2.6 SSE 43 48 23 26 1016.9 1016.8 -
04/04:00am 22.1 17.2 17.2 74 3.0 SSE 39 44 21 24 1016.7 1016.6 -
04/03:30am 22.2 16.5 17.3 74 3.0 SSE 43 50 23 27 1016.4 1016.3 -
04/03:00am 22.1 17.2 18.1 78 2.5 SSE 41 48 22 26 1016.2 1016.1 0.0
04/02:30am 22.0 15.5 17.6 76 2.7 SSE 48 56 26 30 1016.0 1015.9 -
04/02:00am 22.1 15.9 18.3 79 2.4 SSE 48 56 26 30 1016.0 1015.9 -
04/01:30am 22.6 16.9 19.4 82 2.0 SSE 48 57 26 31 1016.0 1015.9 -
04/01:00am 23.1 18.7 20.1 83 1.9 SSE 43 50 23 27 1015.9 1015.8 -
04/12:30am 23.4 22.2 20.9 86 1.6 S 28 39 15 21 1015.8 1015.7 -
04/12:00am 23.0 23.0 20.9 88 1.4 SSE 22 26 12 14 1015.5 1015.4 -
 
Date/Time
EDT
Temp
°C
App
Temp
°C
Dew
Point
°C
Rel
Hum
%
Delta-T
°C
Wind Press
QNH
hPa
Press
MSL
hPa
Rain since
9am
mm
Dir  Spd
km/h
Gust
km/h
Spd
kts
Gust
kts
03/11:30pm 23.4 25.5 22.4 94 0.7 S 15 22 8 12 1014.8 1014.7 -
03/11:00pm 23.3 26.8 22.1 93 0.8 S 7 11 4 6 1014.5 1014.4 -
03/10:30pm 23.3 26.4 22.1 93 0.8 S 9 13 5 7 1014.4 1014.3 -
03/10:00pm 23.2 26.1 21.8 92 0.9 SSE 9 9 5 5 1014.1 1014.0 -
03/09:30pm 23.3 26.5 21.7 91 1.1 SE 7 11 4 6 1013.8 1013.7 -
03/09:00pm 23.4 27.2 21.7 90 1.1 SE 4 7 2 4 1013.5 1013.4 -
03/08:30pm 23.5 25.9 21.6 89 1.3 NNE 11 17 6 9 1012.6 1012.5 -
03/08:00pm 23.7 24.5 21.4 87 1.5 NNE 19 24 10 13 1011.7 1011.6 0.2
03/07:30pm 23.8 25.6 21.9 89 1.3 N 15 19 8 10 1011.4 1011.3 0.2
03/07:00pm 24.1 25.2 22.0 88 1.4 NNE 19 20 10 11 1011.0 1010.9 0.2
03/06:30pm 24.6 26.0 21.9 85 1.8 NE 17 22 9 12 1010.8 1010.7 0.2
03/06:00pm 25.4 26.5 21.9 81 2.3 NE 19 22 10 12 1010.5 1010.4 0.2
03/05:30pm 26.4 26.7 21.6 75 3.2 NE 22 24 12 13 1010.1 1010.0 0.2
03/05:00pm 27.1 27.7 22.1 74 3.4 ENE 22 26 12 14 1010.2 1010.1 0.2
03/04:30pm 26.4 26.5 21.8 76 3.1 ENE 24 28 13 15 1010.3 1010.2 0.2
03/04:00pm 27.1 27.8 22.3 75 3.2 ENE 22 28 12 15 1010.3 1010.2 0.2
03/03:30pm 27.7 28.7 22.9 75 3.3 NE 22 24 12 13 1010.4 1010.3 0.2
03/03:00pm 27.9 28.9 22.2 71 3.8 ENE 20 24 11 13 1010.9 1010.8 0.2
03/02:30pm 29.1 30.0 22.6 68 4.4 NE 22 26 12 14 1011.1 1011.0 0.2
03/02:00pm 29.2 30.0 22.4 66 4.6 NE 22 26 12 14 1011.6 1011.5 0.2
03/01:30pm 26.7 27.8 21.2 72 3.6 ENE 17 19 9 10 1012.2 1012.1 0.2
03/01:00pm 26.3 27.9 20.8 71 3.6 E 13 15 7 8 1012.8 1012.7 0.2
03/12:30pm 26.8 28.3 20.6 69 4.1 ENE 13 17 7 9 1013.0 1012.9 0.2
03/12:00pm 27.0 29.4 21.5 72 3.7 ENE 11 13 6 7 1013.5 1013.4 0.2
03/11:30am 28.0 30.7 21.3 67 4.5 NE 9 11 5 6 1013.9 1013.8 0.2
03/11:00am 26.4 29.1 21.4 74 3.3 ENE 9 9 5 5 1014.0 1013.9 0.2
03/10:30am 26.8 29.9 21.1 71 3.8 NE 6 7 3 4 1014.3 1014.2 0.0
03/10:00am 24.4 27.7 20.7 80 2.4 NE 4 6 2 3 1014.4 1014.3 0.0
03/09:30am 23.3 27.1 21.0 87 1.5 NW 2 4 1 2 1014.5 1014.4 0.0
03/09:00am 22.0 24.7 19.5 86 1.6 W 4 7 2 4 1014.6 1014.5 0.2
03/08:30am 21.6 23.5 19.7 89 1.2 W 9 13 5 7 1014.7 1014.6 0.2
03/08:00am 20.6 22.0 19.6 94 0.6 W 11 15 6 8 1014.7 1014.6 0.2
03/07:30am 20.0 20.9 19.2 95 0.5 W 13 17 7 9 1014.6 1014.5 0.2
03/07:00am 19.9 20.7 19.1 95 0.5 W 13 17 7 9 1014.5 1014.4 0.2
03/06:30am 20.1 20.9 19.1 94 0.6 W 13 15 7 8 1014.3 1014.2 0.2
03/06:00am 20.0 20.9 19.2 95 0.5 W 13 17 7 9 1014.2 1014.1 0.2
03/05:30am 20.5 21.4 19.3 93 0.8 W 13 15 7 8 1014.2 1014.1 0.2
03/05:00am 20.5 21.7 19.0 91 0.9 W 11 13 6 7 1013.9 1013.8 0.2
03/04:30am 20.7 22.0 19.2 91 0.9 W 11 15 6 8 1014.2 1014.1 0.2
03/04:00am 21.2 23.1 19.7 91 1.0 WSW 9 11 5 6 1014.4 1014.3 0.2
03/03:30am 21.5 24.2 19.4 88 1.3 S 4 7 2 4 1014.6 1014.5 0.2
03/03:00am 21.7 23.4 19.4 87 1.5 SSE 9 11 5 6 1014.9 1014.8 0.2
03/02:30am 21.7 23.0 19.3 86 1.5 SSE 11 13 6 7 1015.1 1015.0 0.2
03/02:00am 21.8 23.1 19.4 86 1.5 SSE 11 13 6 7 1015.4 1015.3 0.2
03/01:30am 21.9 22.9 19.5 86 1.5 SSE 13 15 7 8 1015.9 1015.8 0.2
03/01:00am 22.0 22.6 19.4 85 1.7 SSE 15 19 8 10 1016.3 1016.2 0.2
03/12:30am 22.3 22.1 19.7 85 1.7 SSE 20 24 11 13 1016.5 1016.4 0.2
03/12:00am 22.4 21.8 19.8 85 1.7 SSE 22 26 12 14 1016.5 1016.4 0.2
 
Date/Time
EDT
Temp
°C
App
Temp
°C
Dew
Point
°C
Rel
Hum
%
Delta-T
°C
Wind Press
QNH
hPa
Press
MSL
hPa
Rain since
9am
mm
Dir  Spd
km/h
Gust
km/h
Spd
kts
Gust
kts
02/11:30pm 22.7 21.4 19.9 84 1.8 SSE 26 28 14 15 1016.7 1016.6 0.2
02/11:00pm 22.6 20.9 19.8 84 1.8 SSE 28 32 15 17 1016.9 1016.8 0.2
02/10:30pm 22.7 20.6 19.7 83 1.9 SSE 30 33 16 18 1016.8 1016.7 0.2
02/10:00pm 22.7 20.1 19.5 82 2.0 SSE 32 37 17 20 1016.8 1016.7 0.2
02/09:30pm 22.9 20.9 19.9 83 1.9 SSE 30 41 16 22 1016.5 1016.4 0.2
02/09:00pm 22.8 20.3 20.1 85 1.7 SSE 33 37 18 20 1016.3 1016.2 0.2
02/08:30pm 22.9 20.6 20.1 84 1.8 SSE 32 35 17 19 1015.9 1015.8 0.2
02/08:00pm 23.0 20.4 20.0 83 1.9 S 33 39 18 21 1015.4 1015.3 0.2
02/07:30pm 22.8 19.9 20.0 84 1.8 SSE 35 41 19 22 1015.1 1015.0 0.2
02/07:00pm 22.7 20.7 20.0 85 1.7 SSE 30 35 16 19 1015.1 1015.0 0.2
02/06:30pm 22.5 20.3 20.4 88 1.4 S 32 39 17 21 1014.9 1014.8 0.2
02/06:00pm 22.7 21.2 20.2 86 1.6 S 28 35 15 19 1014.6 1014.5 0.2
02/05:30pm 22.7 22.1 20.4 87 1.5 S 24 28 13 15 1014.4 1014.3 0.2
02/05:00pm 22.7 22.0 21.0 90 1.1 S 26 30 14 16 1014.4 1014.3 0.2
02/04:30pm 23.1 22.4 21.0 88 1.4 SSE 26 30 14 16 1013.9 1013.8 0.2
02/04:00pm 23.5 23.0 20.8 85 1.8 S 24 32 13 17 1013.5 1013.4 0.2
02/03:30pm 23.8 22.2 20.7 83 2.0 S 30 35 16 19 1013.4 1013.3 0.2
02/03:00pm 24.2 21.4 21.1 83 2.0 S 37 46 20 25 1013.5 1013.4 0.2
02/02:30pm 24.0 20.5 21.1 84 1.9 S 41 56 22 30 1013.7 1013.6 0.2
02/02:00pm 24.0 20.7 21.5 86 1.7 S 41 54 22 29 1013.4 1013.3 0.2
02/01:30pm 24.3 21.5 21.8 86 1.7 SSW 39 50 21 27 1013.3 1013.2 0.2
02/01:00pm 24.1 22.6 22.0 88 1.4 S 33 43 18 23 1013.4 1013.3 0.2
02/12:30pm 24.5 22.5 22.6 89 1.3 SSW 37 46 20 25 1013.0 1012.9 0.2
02/12:00pm 25.7 24.4 23.2 86 1.7 SSW 35 43 19 23 1012.9 1012.8 0.0
02/11:30am 25.3 24.4 22.8 86 1.7 SSW 32 39 17 21 1012.7 1012.6 0.0
02/11:00am 25.6 24.1 22.7 84 2.0 S 35 44 19 24 1012.3 1012.2 0.0
02/10:30am 25.9 25.6 23.8 88 1.4 SSW 32 37 17 20 1011.9 1011.8 0.0
02/10:00am 26.7 29.6 24.4 87 1.6 SSW 17 20 9 11 1011.6 1011.5 0.0
02/09:30am 27.3 32.2 25.3 89 1.4 SSW 9 11 5 6 1010.8 1010.7 0.0
02/09:00am 25.9 30.4 23.9 89 1.4 SSW 7 11 4 6 1010.5 1010.4 0.0
02/08:30am 26.1 31.7 24.9 93 0.8 WSW 4 7 2 4 1010.6 1010.5 0.0
02/08:00am 24.9 29.4 23.7 93 0.8 WSW 6 7 3 4 1010.2 1010.1 0.0
02/07:30am 24.1 27.9 23.4 96 0.5 SSW 9 15 5 8 1010.1 1010.0 0.0
02/07:00am 23.9 27.7 23.4 97 0.3 SW 9 15 5 8 1009.8 1009.7 0.0
02/06:30am 23.9 28.9 23.2 96 0.5 WSW 2 6 1 3 1009.5 1009.4 0.0
02/06:00am 23.9 28.1 23.2 96 0.5 E 6 9 3 5 1008.7 1008.7 0.0
02/05:30am 23.8 27.4 23.1 96 0.5 E 9 11 5 6 1008.7 1008.7 0.0
02/05:00am 23.8 28.4 23.1 96 0.5 E 4 6 2 3 1009.0 1009.0 0.0
02/04:30am 23.7 27.8 23.0 96 0.5 E 6 6 3 3 1008.6 1008.6 0.0
02/04:00am 23.7 28.3 23.2 97 0.3 E 4 6 2 3 1008.9 1008.9 0.0
02/03:30am 23.7 28.7 23.2 97 0.3 E 2 6 1 3 1009.1 1009.1 0.0
02/03:00am 23.8 29.1 23.1 96 0.5 CALM 0 0 0 0 1009.5 1009.4 0.0
02/02:30am 23.8 29.1 23.0 95 0.5 CALM 0 0 0 0 1009.7 1009.6 0.0
02/02:00am 23.7 28.2 22.9 95 0.5 SSW 4 6 2 3 1010.4 1010.3 0.0
02/01:30am 23.9 28.5 23.2 96 0.5 SSW 4 4 2 2 1010.4 1010.3 0.0
02/01:00am 23.6 27.7 22.9 96 0.5 SSW 6 7 3 4 1010.6 1010.5 0.0
02/12:30am 23.7 28.9 22.9 95 0.5 CALM 0 0 0 0 1010.9 1010.8 0.0
02/12:00am 23.9 29.2 23.0 95 0.6 CALM 0 0 0 0 1011.0 1010.9 0.0
 
Date/Time
EDT
Temp
°C
App
Temp
°C
Dew
Point
°C
Rel
Hum
%
Delta-T
°C
Wind Press
QNH
hPa
Press
MSL
hPa
Rain since
9am
mm
Dir  Spd
km/h
Gust
km/h
Spd
kts
Gust
kts
01/11:30pm 24.0 29.4 23.3 96 0.5 CALM 0 0 0 0 1011.3 1011.2 0.0
01/11:00pm 24.1 28.6 22.9 93 0.8 NW 4 6 2 3 1011.7 1011.6 0.0
01/10:30pm 24.0 29.2 22.8 93 0.8 CALM 0 2 0 1 1012.1 1012.0 0.0

Latest Capital City Observations: Canberra | Sydney | Melbourne | Brisbane | Adelaide | Perth | Hobart | Darwin

Other formats

Comma delimited format used in spreadsheet applications
http://www.bom.gov.au/fwo/IDN60901/IDN60901.95770.axf

JavaScript Object Notation format (JSON) in row-major order
http://www.bom.gov.au/fwo/IDN60901/IDN60901.95770.json

Data quality

Most of these data are generated automatically and are frequently updated. Quality checks on data are not normally performed. It is possible for incorrect values to appear. Refer to information at About Latest Weather Observations and please check the disclaimer before using these data.